createdAt,value
2024-02-29T00:01:13.508Z,1.37
2024-02-29T00:06:12.442Z,1.82
2024-02-29T00:11:11.304Z,1.55
2024-02-29T00:16:10.460Z,1.14
2024-02-29T00:21:09.276Z,1.22
2024-02-29T00:26:08.243Z,0.93
2024-02-29T00:31:07.222Z,1.04
2024-02-29T00:36:09.984Z,0.93
2024-02-29T00:41:09.526Z,0.95
2024-02-29T00:46:08.573Z,0.45
2024-02-29T00:51:07.420Z,0.89
2024-02-29T00:56:06.300Z,1.05
2024-02-29T01:01:05.168Z,1.28
2024-02-29T01:06:05.647Z,1.24
2024-02-29T01:11:04.900Z,1.40
2024-02-29T01:16:04.015Z,1.06
2024-02-29T01:21:02.955Z,1.24
2024-02-29T01:26:01.968Z,1.19
2024-02-29T01:31:01.564Z,0.92
2024-02-29T01:36:00.391Z,1.31
2024-02-29T01:40:59.298Z,1.19
2024-02-29T01:46:08.816Z,1.37
2024-02-29T01:51:09.622Z,0.91
2024-02-29T01:56:08.715Z,1.20
2024-02-29T02:01:07.660Z,1.57
2024-02-29T02:06:06.637Z,1.24
2024-02-29T02:11:05.506Z,0.94
2024-02-29T02:16:04.696Z,1.18
2024-02-29T02:21:03.642Z,1.39
2024-02-29T02:26:02.595Z,1.17
2024-02-29T02:31:01.468Z,0.79
2024-02-29T02:36:00.307Z,0.93
2024-02-29T02:40:59.189Z,1.38
2024-02-29T02:45:58.067Z,1.40
2024-02-29T02:50:56.926Z,1.32
2024-02-29T02:55:55.692Z,0.94
2024-02-29T03:00:54.545Z,0.82
2024-02-29T03:05:53.352Z,1.00
2024-02-29T03:10:52.225Z,0.79
2024-02-29T03:15:51.226Z,0.56
2024-02-29T03:20:50.165Z,0.54
2024-02-29T03:25:49.079Z,0.41
2024-02-29T03:30:47.941Z,0.31
2024-02-29T03:35:46.844Z,0.75
2024-02-29T03:40:46.032Z,0.47
2024-02-29T03:45:44.959Z,0.35
2024-02-29T03:50:43.752Z,0.31
2024-02-29T03:55:44.763Z,0.47
2024-02-29T04:00:46.306Z,0.57
2024-02-29T04:05:45.238Z,-0.05
2024-02-29T04:10:47.415Z,0.16
2024-02-29T04:15:49.701Z,0.61
2024-02-29T04:20:48.991Z,0.13
2024-02-29T04:25:47.945Z,0.14
2024-02-29T04:30:46.838Z,0.19
2024-02-29T04:35:45.758Z,0.26
2024-02-29T04:40:44.521Z,0.26
2024-02-29T04:45:44.082Z,0.23
2024-02-29T04:50:42.967Z,0.33
2024-02-29T04:55:42.642Z,0.39
2024-02-29T05:00:41.609Z,0.56
2024-02-29T05:05:40.614Z,0.52
2024-02-29T05:10:39.549Z,0.65
2024-02-29T05:15:40.249Z,0.68
2024-02-29T05:20:39.057Z,0.83
2024-02-29T05:25:38.674Z,1.02
2024-02-29T05:30:37.460Z,1.19
2024-02-29T05:35:36.540Z,1.29
2024-02-29T05:40:36.304Z,1.09
2024-02-29T05:45:35.137Z,1.27
2024-02-29T05:50:34.674Z,1.10
2024-02-29T05:55:33.778Z,1.22
2024-02-29T06:00:32.852Z,2.46
2024-02-29T06:05:32.298Z,7.78
2024-02-29T06:10:31.690Z,8.29
2024-02-29T06:15:35.035Z,9.03
2024-02-29T06:20:47.906Z,9.16
2024-02-29T06:25:50.869Z,9.20
2024-02-29T06:30:49.904Z,9.12
2024-02-29T06:35:48.784Z,9.21
2024-02-29T06:40:48.121Z,6.66
2024-02-29T06:45:49.311Z,4.16
2024-02-29T06:50:48.366Z,3.50
2024-02-29T06:55:47.352Z,3.34
2024-02-29T07:00:46.705Z,3.30
2024-02-29T07:05:45.539Z,3.04
2024-02-29T07:10:44.595Z,2.96
2024-02-29T07:15:43.653Z,3.06
2024-02-29T07:20:42.449Z,3.07
2024-02-29T07:25:41.237Z,3.08
2024-02-29T07:30:40.156Z,2.87
2024-02-29T07:35:39.352Z,2.75
2024-02-29T07:40:38.089Z,2.99
2024-02-29T07:45:37.506Z,3.04
2024-02-29T07:50:36.448Z,2.66
2024-02-29T07:55:35.202Z,3.37
2024-02-29T08:00:35.173Z,3.54
2024-02-29T08:05:35.823Z,3.93
2024-02-29T08:10:34.696Z,4.30
2024-02-29T08:15:33.526Z,4.30
2024-02-29T08:20:32.363Z,4.44
2024-02-29T08:25:32.046Z,4.23
2024-02-29T08:30:30.883Z,4.52
2024-02-29T08:35:30.487Z,4.23
2024-02-29T08:40:29.351Z,4.32
2024-02-29T08:45:28.280Z,4.60
2024-02-29T08:50:27.382Z,4.73
2024-02-29T08:55:26.426Z,4.93
2024-02-29T09:00:25.420Z,5.34
2024-02-29T09:05:24.556Z,5.32
2024-02-29T09:10:23.401Z,5.42
2024-02-29T09:15:22.351Z,5.68
2024-02-29T09:20:23.168Z,5.92
2024-02-29T09:25:22.102Z,6.11
2024-02-29T09:30:21.055Z,6.45
2024-02-29T09:35:21.343Z,6.67
2024-02-29T09:40:23.583Z,6.35
2024-02-29T09:45:26.996Z,6.50
2024-02-29T09:50:25.644Z,6.59
2024-02-29T09:55:25.225Z,6.74
2024-02-29T10:00:25.748Z,6.96
2024-02-29T10:05:25.261Z,6.99
2024-02-29T10:10:24.445Z,7.16
2024-02-29T10:15:30.178Z,7.29
2024-02-29T10:20:29.276Z,7.70
2024-02-29T10:25:28.401Z,7.78
2024-02-29T10:30:28.895Z,8.29
2024-02-29T10:35:28.420Z,8.24
2024-02-29T10:40:27.605Z,8.31
2024-02-29T10:45:27.853Z,8.31
2024-02-29T10:50:27.090Z,8.38
2024-02-29T10:55:31.917Z,8.35
2024-02-29T11:00:30.963Z,8.34
2024-02-29T11:05:30.227Z,8.51
2024-02-29T11:10:29.838Z,8.58
2024-02-29T11:15:29.029Z,8.85
2024-02-29T11:20:29.210Z,9.14
2024-02-29T11:25:30.642Z,8.90
2024-02-29T11:30:31.900Z,9.10
2024-02-29T11:35:30.816Z,9.19
2024-02-29T11:40:33.094Z,9.48
2024-02-29T11:45:32.514Z,9.64
2024-02-29T11:50:31.476Z,10.03
2024-02-29T11:55:32.146Z,10.02
2024-02-29T12:00:31.306Z,9.68
2024-02-29T12:05:30.068Z,9.25
2024-02-29T12:10:29.755Z,9.45
2024-02-29T12:15:28.887Z,9.21
2024-02-29T12:20:28.678Z,9.08
2024-02-29T12:25:27.886Z,9.25
2024-02-29T12:30:26.850Z,8.75
2024-02-29T12:35:29.332Z,9.23
2024-02-29T12:40:30.758Z,8.98
2024-02-29T12:45:29.893Z,8.79
2024-02-29T12:50:28.805Z,8.55
2024-02-29T12:55:28.758Z,8.89
2024-02-29T13:00:27.643Z,8.91
2024-02-29T13:05:26.538Z,8.97
2024-02-29T13:10:26.160Z,9.16
2024-02-29T13:15:25.156Z,9.35
2024-02-29T13:20:23.970Z,9.44
2024-02-29T13:25:22.818Z,8.94
2024-02-29T13:30:21.655Z,9.09
2024-02-29T13:35:20.520Z,9.31
2024-02-29T13:40:19.732Z,9.16
2024-02-29T13:45:18.977Z,9.33
2024-02-29T13:50:20.049Z,9.19
2024-02-29T13:55:19.036Z,9.32
2024-02-29T14:00:18.671Z,9.29
2024-02-29T14:05:17.640Z,9.24
2024-02-29T14:10:17.440Z,9.10
2024-02-29T14:15:20.245Z,9.19
2024-02-29T14:20:19.140Z,9.16
2024-02-29T14:25:18.707Z,9.17
2024-02-29T14:30:18.234Z,9.16
2024-02-29T14:35:17.053Z,9.50
2024-02-29T14:40:16.601Z,9.33
2024-02-29T14:45:15.577Z,9.19
2024-02-29T14:50:14.418Z,9.34
2024-02-29T14:55:14.404Z,9.34
2024-02-29T15:00:14.407Z,9.38
2024-02-29T15:05:14.099Z,9.22
2024-02-29T15:10:13.189Z,9.20
2024-02-29T15:15:12.420Z,9.08
2024-02-29T15:20:11.944Z,8.98
2024-02-29T15:25:16.807Z,8.81
2024-02-29T15:30:16.493Z,8.52
2024-02-29T15:35:15.566Z,8.72
2024-02-29T15:40:14.470Z,8.64
2024-02-29T15:45:14.073Z,8.67
2024-02-29T15:50:13.413Z,8.73
2024-02-29T15:55:12.309Z,8.63
2024-02-29T16:00:12.462Z,8.60
2024-02-29T16:05:12.723Z,8.31
2024-02-29T16:10:11.804Z,8.38
2024-02-29T16:15:13.406Z,8.16
2024-02-29T16:20:12.444Z,8.21
2024-02-29T16:25:11.244Z,8.26
2024-02-29T16:30:10.375Z,7.97
2024-02-29T16:35:09.319Z,8.15
2024-02-29T16:40:08.708Z,8.16
2024-02-29T16:45:07.966Z,7.90
2024-02-29T16:50:07.335Z,7.80
2024-02-29T16:55:06.706Z,7.82
2024-02-29T17:00:06.098Z,7.75
2024-02-29T17:05:05.409Z,7.67
2024-02-29T17:10:04.561Z,8.05
2024-02-29T17:15:03.967Z,8.05
2024-02-29T17:20:03.887Z,8.07
2024-02-29T17:25:03.241Z,7.96
2024-02-29T17:30:02.138Z,7.93
2024-02-29T17:35:00.990Z,7.86
2024-02-29T17:39:59.854Z,7.88
2024-02-29T17:44:58.806Z,8.05
2024-02-29T17:49:58.928Z,8.07
2024-02-29T17:54:59.115Z,8.17
2024-02-29T17:59:58.089Z,8.14
2024-02-29T18:04:58.755Z,8.08
2024-02-29T18:10:01.629Z,8.03
2024-02-29T18:15:02.170Z,8.15
2024-02-29T18:20:01.137Z,8.15
2024-02-29T18:25:00.246Z,8.06
2024-02-29T18:29:59.103Z,8.13
2024-02-29T18:34:57.868Z,7.88
2024-02-29T18:39:56.795Z,7.44
2024-02-29T18:44:58.278Z,7.84
2024-02-29T18:49:57.976Z,7.86
2024-02-29T18:54:57.476Z,8.06
2024-02-29T18:59:56.725Z,7.74
2024-02-29T19:04:55.597Z,7.74
2024-02-29T19:09:54.406Z,7.72
2024-02-29T19:14:53.521Z,7.66
2024-02-29T19:19:52.379Z,7.46
2024-02-29T19:24:51.239Z,7.60
2024-02-29T19:29:53.323Z,7.56
2024-02-29T19:34:52.716Z,7.43
2024-02-29T19:39:52.883Z,7.86
2024-02-29T19:44:54.390Z,8.35
2024-02-29T19:49:53.209Z,7.86
2024-02-29T19:54:52.950Z,7.67
2024-02-29T19:59:51.832Z,7.55
2024-02-29T20:04:52.471Z,7.50
2024-02-29T20:09:54.283Z,7.41
2024-02-29T20:14:55.054Z,7.60
2024-02-29T20:19:53.882Z,7.68
2024-02-29T20:24:54.543Z,7.62
2024-02-29T20:29:53.438Z,7.69
2024-02-29T20:34:52.336Z,7.77
2024-02-29T20:39:52.822Z,7.85
2024-02-29T20:44:52.600Z,7.81
2024-02-29T20:49:51.674Z,7.83
2024-02-29T20:54:50.839Z,7.78
2024-02-29T20:59:49.673Z,7.83
2024-02-29T21:04:49.957Z,7.90
2024-02-29T21:09:48.978Z,7.66
2024-02-29T21:14:47.898Z,7.69
2024-02-29T21:19:46.748Z,7.95
2024-02-29T21:24:45.745Z,7.90
2024-02-29T21:29:46.336Z,7.96
2024-02-29T21:34:45.163Z,7.94
2024-02-29T21:39:45.263Z,8.01
2024-02-29T21:44:46.386Z,7.85
2024-02-29T21:49:46.469Z,7.99
2024-02-29T21:54:45.516Z,7.90
2024-02-29T21:59:45.276Z,7.90
2024-02-29T22:04:44.182Z,7.92
2024-02-29T22:09:43.011Z,7.88
2024-02-29T22:14:41.848Z,7.97
2024-02-29T22:19:40.713Z,8.29
2024-02-29T22:24:40.867Z,8.13
2024-02-29T22:29:42.533Z,8.20
2024-02-29T22:34:41.318Z,8.12
2024-02-29T22:39:40.107Z,8.11
2024-02-29T22:44:39.453Z,8.09
2024-02-29T22:49:38.401Z,7.98
2024-02-29T22:54:37.350Z,8.07
2024-02-29T22:59:36.201Z,8.14
2024-02-29T23:04:35.092Z,8.15
2024-02-29T23:09:33.916Z,8.08
2024-02-29T23:14:33.544Z,8.01
2024-02-29T23:19:32.379Z,8.19
2024-02-29T23:24:31.191Z,8.17
2024-02-29T23:29:29.993Z,8.09
2024-02-29T23:34:29.061Z,8.04
2024-02-29T23:39:27.967Z,8.07
2024-02-29T23:44:26.757Z,8.11
2024-02-29T23:49:25.798Z,8.06
2024-02-29T23:54:25.040Z,8.10
2024-02-29T23:59:24.401Z,7.86
